createdAt,value
2023-01-22T00:01:33.805Z,100.00
2023-01-22T00:04:00.627Z,100.00
2023-01-22T00:06:27.555Z,100.00
2023-01-22T00:08:54.366Z,100.00
2023-01-22T00:11:21.394Z,100.00
2023-01-22T00:13:48.255Z,100.00
2023-01-22T00:16:16.348Z,100.00
2023-01-22T00:18:43.746Z,100.00
2023-01-22T00:21:10.901Z,100.00
2023-01-22T00:23:38.697Z,100.00
2023-01-22T00:26:15.875Z,100.00
2023-01-22T00:28:45.404Z,100.00
2023-01-22T00:31:12.979Z,100.00
2023-01-22T00:33:41.310Z,100.00
2023-01-22T00:36:12.709Z,100.00
2023-01-22T00:38:40.643Z,100.00
2023-01-22T00:41:08.156Z,100.00
2023-01-22T00:43:35.570Z,100.00
2023-01-22T00:46:02.316Z,100.00
2023-01-22T00:48:29.686Z,100.00
2023-01-22T00:50:56.514Z,100.00
2023-01-22T00:53:23.690Z,100.00
2023-01-22T00:55:54.846Z,100.00
2023-01-22T00:58:21.583Z,100.00
2023-01-22T01:00:48.616Z,100.00
2023-01-22T01:03:27.714Z,100.00
2023-01-22T01:05:54.986Z,100.00
2023-01-22T01:08:21.913Z,100.00
2023-01-22T01:10:48.713Z,100.00
2023-01-22T01:13:15.540Z,100.00
2023-01-22T01:15:43.343Z,100.00
2023-01-22T01:18:13.058Z,100.00
2023-01-22T01:20:40.777Z,100.00
2023-01-22T01:23:07.614Z,100.00
2023-01-22T01:25:34.275Z,100.00
2023-01-22T01:28:01.076Z,100.00
2023-01-22T01:30:27.768Z,100.00
2023-01-22T01:32:54.492Z,100.00
2023-01-22T01:35:23.329Z,100.00
2023-01-22T01:37:53.320Z,100.00
2023-01-22T01:40:20.191Z,100.00
2023-01-22T01:42:47.057Z,100.00
2023-01-22T01:45:20.736Z,100.00
2023-01-22T01:48:12.900Z,100.00
2023-01-22T01:50:40.460Z,100.00
2023-01-22T01:53:07.195Z,100.00
2023-01-22T01:55:35.022Z,100.00
2023-01-22T01:58:06.072Z,100.00
2023-01-22T02:00:35.006Z,100.00
2023-01-22T02:03:01.808Z,100.00
2023-01-22T02:05:30.379Z,100.00
2023-01-22T02:07:57.152Z,100.00
2023-01-22T02:10:23.876Z,100.00
2023-01-22T02:12:50.598Z,100.00
2023-01-22T02:15:17.500Z,100.00
2023-01-22T02:17:44.630Z,100.00
2023-01-22T02:20:11.812Z,100.00
2023-01-22T02:22:40.439Z,100.00
2023-01-22T02:25:07.830Z,100.00
2023-01-22T02:27:34.652Z,100.00
2023-01-22T02:30:01.598Z,100.00
2023-01-22T02:32:29.054Z,100.00
2023-01-22T02:34:56.041Z,100.00
2023-01-22T02:37:22.735Z,100.00
2023-01-22T02:39:49.490Z,100.00
2023-01-22T02:42:17.289Z,100.00
2023-01-22T02:44:44.145Z,100.00
2023-01-22T02:47:12.152Z,100.00
2023-01-22T02:49:38.870Z,100.00
2023-01-22T02:52:05.993Z,100.00
2023-01-22T02:54:34.031Z,100.00
2023-01-22T02:57:00.868Z,100.00
2023-01-22T02:59:27.805Z,100.00
2023-01-22T03:01:56.481Z,100.00
2023-01-22T03:04:23.504Z,100.00
2023-01-22T03:06:50.228Z,100.00
2023-01-22T03:09:17.371Z,100.00
2023-01-22T03:11:45.371Z,100.00
2023-01-22T03:14:39.757Z,100.00
2023-01-22T03:17:26.442Z,100.00
2023-01-22T03:20:12.064Z,100.00
2023-01-22T03:22:38.802Z,100.00
2023-01-22T03:25:05.946Z,100.00
2023-01-22T03:27:32.762Z,100.00
2023-01-22T03:29:59.563Z,100.00
2023-01-22T03:32:26.479Z,100.00
2023-01-22T03:34:53.987Z,100.00
2023-01-22T03:37:21.454Z,100.00
2023-01-22T03:39:50.412Z,100.00
2023-01-22T03:42:31.173Z,100.00
2023-01-22T03:44:57.923Z,100.00
2023-01-22T03:47:25.178Z,100.00
2023-01-22T03:49:51.884Z,100.00
2023-01-22T03:52:18.631Z,100.00
2023-01-22T03:54:45.338Z,100.00
2023-01-22T03:57:12.112Z,100.00
2023-01-22T03:59:39.289Z,100.00
2023-01-22T04:02:07.108Z,100.00
2023-01-22T04:04:36.240Z,100.00
2023-01-22T04:07:02.951Z,100.00
2023-01-22T04:09:29.665Z,100.00
2023-01-22T04:11:57.802Z,100.00
2023-01-22T04:14:25.873Z,100.00
2023-01-22T04:16:57.016Z,100.00
2023-01-22T04:19:30.425Z,100.00
2023-01-22T04:21:57.090Z,100.00
2023-01-22T04:24:24.030Z,100.00
2023-01-22T04:26:52.784Z,100.00
2023-01-22T04:29:19.963Z,100.00
2023-01-22T04:31:46.743Z,100.00
2023-01-22T04:34:13.474Z,100.00
2023-01-22T04:36:51.626Z,100.00
2023-01-22T04:39:18.529Z,100.00
2023-01-22T04:41:45.245Z,100.00
2023-01-22T04:44:12.140Z,100.00
2023-01-22T04:46:40.655Z,100.00
2023-01-22T04:49:07.694Z,100.00
2023-01-22T04:51:35.650Z,100.00
2023-01-22T04:54:02.350Z,100.00
2023-01-22T04:56:29.091Z,100.00
2023-01-22T04:58:55.936Z,100.00
2023-01-22T05:01:22.794Z,100.00
2023-01-22T05:03:50.083Z,100.00
2023-01-22T05:06:16.822Z,100.00
2023-01-22T05:08:43.601Z,100.00
2023-01-22T05:11:10.910Z,100.00
2023-01-22T05:13:44.204Z,100.00
2023-01-22T05:16:10.938Z,100.00
2023-01-22T05:18:37.845Z,100.00
2023-01-22T05:21:04.850Z,100.00
2023-01-22T05:23:32.913Z,100.00
2023-01-22T05:25:59.712Z,100.00
2023-01-22T05:28:38.351Z,100.00
2023-01-22T05:31:11.311Z,100.00
2023-01-22T05:33:52.604Z,100.00
2023-01-22T05:36:19.566Z,100.00
2023-01-22T05:38:48.180Z,100.00
2023-01-22T05:41:15.728Z,100.00
2023-01-22T05:43:42.600Z,100.00
2023-01-22T05:46:14.471Z,100.00
2023-01-22T05:48:44.182Z,100.00
2023-01-22T05:51:14.085Z,100.00
2023-01-22T05:53:42.045Z,100.00
2023-01-22T05:56:09.684Z,100.00
2023-01-22T05:58:38.567Z,100.00
2023-01-22T06:01:05.821Z,100.00
2023-01-22T06:03:38.717Z,100.00
2023-01-22T06:06:08.162Z,100.00
2023-01-22T06:08:34.918Z,100.00
2023-01-22T06:11:06.778Z,100.00
2023-01-22T06:13:33.691Z,100.00
2023-01-22T06:16:07.324Z,100.00
2023-01-22T06:18:52.823Z,100.00
2023-01-22T06:21:19.859Z,100.00
2023-01-22T06:23:46.760Z,100.00
2023-01-22T06:26:13.544Z,100.00
2023-01-22T06:28:41.016Z,100.00
2023-01-22T06:31:07.994Z,100.00
2023-01-22T06:33:35.890Z,100.00
2023-01-22T06:36:03.240Z,100.00
2023-01-22T06:38:30.139Z,100.00
2023-01-22T06:40:59.206Z,100.00
2023-01-22T06:43:26.683Z,100.00
2023-01-22T06:45:53.676Z,100.00
2023-01-22T06:48:23.484Z,100.00
2023-01-22T06:50:50.263Z,100.00
2023-01-22T06:53:17.084Z,100.00
2023-01-22T06:55:43.779Z,100.00
2023-01-22T06:58:10.539Z,100.00
2023-01-22T07:00:37.739Z,100.00
2023-01-22T07:03:08.596Z,100.00
2023-01-22T07:05:35.395Z,100.00
2023-01-22T07:08:02.115Z,100.00
2023-01-22T07:10:28.866Z,100.00
2023-01-22T07:12:55.887Z,100.00
2023-01-22T07:15:22.629Z,100.00
2023-01-22T07:17:51.256Z,100.00
2023-01-22T07:20:19.266Z,100.00
2023-01-22T07:22:46.234Z,100.00
2023-01-22T07:25:13.052Z,100.00
2023-01-22T07:27:39.984Z,100.00
2023-01-22T07:30:07.436Z,100.00
2023-01-22T07:32:35.394Z,100.00
2023-01-22T07:35:02.111Z,100.00
2023-01-22T07:37:28.833Z,100.00
2023-01-22T07:39:55.647Z,100.00
2023-01-22T07:42:24.659Z,100.00
2023-01-22T07:44:51.530Z,100.00
2023-01-22T07:47:18.339Z,100.00
2023-01-22T07:49:45.062Z,100.00
2023-01-22T07:52:11.819Z,100.00
2023-01-22T07:54:38.547Z,100.00
2023-01-22T07:57:05.308Z,100.00
2023-01-22T07:59:32.108Z,100.00
2023-01-22T08:01:58.860Z,100.00
2023-01-22T08:04:25.635Z,100.00
2023-01-22T08:06:52.509Z,100.00
2023-01-22T10:13:27.228Z,100.00
2023-01-22T10:15:54.658Z,100.00
2023-01-22T10:18:45.503Z,100.00
2023-01-22T10:21:21.158Z,100.00
2023-01-22T10:23:49.643Z,100.00
2023-01-22T10:26:24.681Z,100.00
2023-01-22T10:28:57.851Z,100.00
2023-01-22T10:31:33.772Z,100.00
2023-01-22T10:34:03.147Z,100.00
2023-01-22T10:36:30.412Z,100.00
2023-01-22T10:39:11.524Z,100.00
2023-01-22T10:41:40.328Z,100.00
2023-01-22T10:44:21.411Z,100.00
2023-01-22T10:46:49.168Z,100.00
2023-01-22T10:49:26.376Z,100.00
2023-01-22T10:51:58.492Z,100.00
2023-01-22T10:54:33.395Z,100.00
2023-01-22T10:57:16.221Z,100.00
2023-01-22T10:59:50.604Z,100.00
2023-01-22T11:02:20.987Z,100.00
2023-01-22T11:04:47.685Z,100.00
2023-01-22T11:07:18.987Z,100.00
2023-01-22T11:09:50.362Z,100.00
2023-01-22T11:12:29.085Z,100.00
2023-01-22T11:15:25.257Z,100.00
2023-01-22T11:18:01.580Z,100.00
2023-01-22T11:20:43.618Z,100.00
2023-01-22T11:23:10.168Z,100.00
2023-01-22T11:25:54.840Z,100.00
2023-01-22T11:28:59.962Z,100.00
2023-01-22T11:31:51.331Z,100.00
2023-01-22T11:34:28.334Z,100.00
2023-01-22T11:37:11.440Z,100.00
2023-01-22T11:39:56.782Z,100.00
2023-01-22T11:42:26.084Z,100.00
2023-01-22T11:45:04.713Z,100.00
2023-01-22T11:48:16.672Z,100.00
2023-01-22T11:51:01.602Z,100.00
2023-01-22T11:54:12.134Z,100.00
2023-01-22T11:56:48.266Z,100.00
2023-01-22T11:59:29.600Z,100.00
2023-01-22T12:02:16.175Z,100.00
2023-01-22T12:05:04.799Z,100.00
2023-01-22T12:07:53.388Z,100.00
2023-01-22T12:10:29.042Z,100.00
2023-01-22T12:13:26.193Z,100.00
2023-01-22T12:15:56.732Z,100.00
2023-01-22T12:18:44.778Z,100.00
2023-01-22T12:21:21.331Z,100.00
2023-01-22T12:23:53.216Z,100.00
2023-01-22T12:26:28.839Z,100.00
2023-01-22T12:29:01.651Z,100.00
2023-01-22T12:31:35.708Z,100.00
2023-01-22T12:34:04.126Z,100.00
2023-01-22T12:36:32.119Z,100.00
2023-01-22T12:39:37.965Z,100.00
2023-01-22T12:42:31.760Z,100.00
2023-01-22T12:45:04.239Z,100.00
2023-01-22T12:47:45.098Z,100.00
2023-01-22T12:50:19.889Z,100.00
2023-01-22T12:52:57.818Z,100.00
2023-01-22T12:55:44.488Z,100.00
2023-01-22T12:58:21.458Z,100.00
2023-01-22T13:01:02.806Z,100.00
2023-01-22T13:03:32.133Z,100.00
2023-01-22T13:06:01.334Z,100.00
2023-01-22T13:08:38.951Z,100.00
2023-01-22T13:11:08.279Z,100.00
2023-01-22T13:13:44.790Z,100.00
2023-01-22T13:16:19.371Z,100.00
2023-01-22T13:18:51.178Z,100.00
2023-01-22T13:21:29.754Z,100.00
2023-01-22T13:23:58.388Z,100.00
2023-01-22T13:26:26.764Z,100.00
2023-01-22T13:28:54.963Z,100.00
2023-01-22T13:31:25.067Z,100.00
2023-01-22T13:33:53.295Z,100.00
2023-01-22T13:36:19.910Z,100.00
2023-01-22T13:38:57.289Z,100.00
2023-01-22T13:41:34.362Z,100.00
2023-01-22T13:44:01.876Z,100.00
2023-01-22T13:46:29.209Z,100.00
2023-01-22T13:49:01.251Z,100.00
2023-01-22T13:51:28.257Z,100.00
2023-01-22T13:53:55.034Z,100.00
2023-01-22T13:56:23.370Z,100.00
2023-01-22T13:58:50.204Z,100.00
2023-01-22T14:01:31.386Z,100.00
2023-01-22T14:04:22.230Z,100.00
2023-01-22T14:06:49.974Z,100.00
2023-01-22T14:09:26.779Z,100.00
2023-01-22T14:11:54.045Z,100.00
2023-01-22T14:14:20.644Z,100.00
2023-01-22T14:16:48.422Z,100.00
2023-01-22T14:19:15.412Z,100.00
2023-01-22T14:21:42.727Z,100.00
2023-01-22T14:24:09.322Z,100.00
2023-01-22T14:26:35.994Z,100.00
2023-01-22T14:29:02.710Z,100.00
2023-01-22T14:31:29.604Z,100.00
2023-01-22T14:33:56.227Z,100.00
2023-01-22T14:36:22.859Z,100.00
2023-01-22T14:38:50.837Z,100.00
2023-01-22T14:41:20.512Z,100.00
2023-01-22T14:43:47.263Z,100.00
2023-01-22T14:46:14.062Z,100.00
2023-01-22T14:48:40.738Z,100.00
2023-01-22T14:51:09.645Z,100.00
2023-01-22T14:53:37.151Z,100.00
2023-01-22T14:56:04.390Z,100.00
2023-01-22T14:58:31.436Z,100.00
2023-01-22T15:00:58.217Z,100.00
2023-01-22T15:03:24.968Z,100.00
2023-01-22T15:05:51.975Z,100.00
2023-01-22T15:08:18.712Z,100.00
2023-01-22T15:10:47.693Z,100.00
2023-01-22T15:13:14.475Z,100.00
2023-01-22T15:15:41.875Z,100.00
2023-01-22T15:18:08.695Z,100.00
2023-01-22T15:20:35.516Z,100.00
2023-01-22T15:23:02.139Z,100.00
2023-01-22T15:25:31.611Z,100.00
2023-01-22T15:27:58.356Z,100.00
2023-01-22T15:30:25.444Z,100.00
2023-01-22T15:32:52.524Z,100.00
2023-01-22T15:35:19.217Z,99.97
2023-01-22T15:37:47.861Z,99.86
2023-01-22T15:40:14.623Z,99.89
2023-01-22T15:42:41.363Z,99.83
2023-01-22T15:45:08.559Z,99.87
2023-01-22T15:47:35.885Z,99.81
2023-01-22T15:50:03.251Z,99.63
2023-01-22T15:52:30.892Z,99.62
2023-01-22T15:54:57.930Z,99.71
2023-01-22T15:57:24.700Z,99.74
2023-01-22T15:59:51.479Z,99.63
2023-01-22T16:02:18.271Z,99.73
2023-01-22T16:04:45.023Z,99.80
2023-01-22T16:07:11.692Z,99.86
2023-01-22T16:09:38.739Z,100.00
2023-01-22T16:12:06.105Z,99.94
2023-01-22T16:14:35.011Z,99.91
2023-01-22T16:17:01.858Z,99.91
2023-01-22T16:19:28.677Z,99.88
2023-01-22T16:21:55.445Z,99.81
2023-01-22T16:24:22.061Z,99.88
2023-01-22T16:26:48.654Z,99.84
2023-01-22T16:29:15.253Z,99.81
2023-01-22T16:31:42.172Z,99.70
2023-01-22T16:34:11.707Z,99.77
2023-01-22T16:36:39.034Z,99.97
2023-01-22T16:39:05.864Z,99.98
2023-01-22T16:41:33.782Z,99.95
2023-01-22T16:44:05.069Z,99.94
2023-01-22T16:46:38.914Z,99.97
2023-01-22T16:49:14.134Z,99.97
2023-01-22T16:51:45.350Z,99.99
2023-01-22T16:54:36.139Z,99.93
2023-01-22T16:57:04.381Z,99.94
2023-01-22T16:59:33.053Z,99.98
2023-01-22T17:02:04.321Z,99.97
2023-01-22T17:04:31.682Z,99.91
2023-01-22T17:06:59.415Z,99.71
2023-01-22T17:09:31.660Z,99.77
2023-01-22T17:12:00.824Z,99.92
2023-01-22T17:14:29.599Z,99.73
2023-01-22T17:16:57.548Z,99.89
2023-01-22T17:19:24.251Z,99.87
2023-01-22T17:21:54.603Z,99.92
2023-01-22T17:24:22.484Z,99.97
2023-01-22T17:26:49.964Z,100.00
2023-01-22T17:29:16.875Z,100.00
2023-01-22T17:31:44.647Z,100.00
2023-01-22T17:34:11.408Z,100.00
2023-01-22T17:36:38.682Z,100.00
2023-01-22T17:39:06.091Z,100.00
2023-01-22T17:41:34.280Z,100.00
2023-01-22T17:44:01.019Z,99.99
2023-01-22T17:46:31.255Z,100.00
2023-01-22T17:48:58.704Z,100.00
2023-01-22T17:51:26.588Z,100.00
2023-01-22T17:53:54.665Z,99.97
2023-01-22T17:56:24.528Z,100.00
2023-01-22T17:58:53.451Z,100.00
2023-01-22T18:01:23.148Z,100.00
2023-01-22T18:03:49.884Z,100.00
2023-01-22T18:06:16.907Z,100.00
2023-01-22T18:08:44.059Z,100.00
2023-01-22T18:11:25.873Z,100.00
2023-01-22T18:13:56.628Z,100.00
2023-01-22T18:16:23.967Z,100.00
2023-01-22T18:18:51.931Z,100.00
2023-01-22T18:21:18.865Z,100.00
2023-01-22T18:23:46.024Z,100.00
2023-01-22T18:26:13.552Z,100.00
2023-01-22T18:28:40.338Z,100.00
2023-01-22T18:31:12.185Z,100.00
2023-01-22T18:33:41.153Z,100.00
2023-01-22T18:36:11.639Z,100.00
2023-01-22T18:38:39.500Z,100.00
2023-01-22T18:41:09.885Z,100.00
2023-01-22T18:43:37.541Z,100.00
2023-01-22T18:46:05.251Z,100.00
2023-01-22T18:48:35.213Z,100.00
2023-01-22T18:51:02.673Z,100.00
2023-01-22T18:53:30.329Z,99.98
2023-01-22T18:56:04.938Z,99.89
2023-01-22T18:58:35.332Z,99.92
2023-01-22T19:01:20.529Z,99.78
2023-01-22T19:03:50.771Z,99.80
2023-01-22T19:06:20.430Z,99.81
2023-01-22T19:09:02.121Z,99.86
2023-01-22T19:11:30.336Z,99.50
2023-01-22T19:13:57.980Z,99.38
2023-01-22T19:16:24.715Z,99.54
2023-01-22T19:18:55.868Z,99.61
2023-01-22T19:21:22.845Z,99.57
2023-01-22T19:23:52.230Z,99.53
2023-01-22T19:26:21.178Z,99.57
2023-01-22T19:28:51.425Z,99.45
2023-01-22T19:31:25.386Z,99.38
2023-01-22T19:33:52.877Z,99.70
2023-01-22T19:36:22.473Z,99.45
2023-01-22T19:38:49.762Z,99.41
2023-01-22T19:41:16.612Z,99.73
2023-01-22T19:43:43.778Z,99.64
2023-01-22T19:46:11.922Z,99.61
2023-01-22T19:48:38.808Z,99.67
2023-01-22T19:51:07.687Z,99.75
2023-01-22T19:53:34.961Z,99.50
2023-01-22T19:56:01.762Z,99.81
2023-01-22T19:58:28.797Z,99.77
2023-01-22T20:00:57.459Z,99.86
2023-01-22T20:03:26.521Z,99.78
2023-01-22T20:05:54.068Z,99.98
2023-01-22T20:08:21.040Z,99.93
2023-01-22T20:10:50.433Z,99.85
2023-01-22T20:13:17.221Z,99.99
2023-01-22T20:15:43.914Z,100.00
2023-01-22T20:18:10.638Z,100.00
2023-01-22T20:20:37.577Z,99.99
2023-01-22T20:23:04.367Z,100.00
2023-01-22T20:25:32.878Z,100.00
2023-01-22T20:28:00.438Z,99.99
2023-01-22T20:30:27.164Z,100.00
2023-01-22T20:32:56.340Z,99.99
2023-01-22T20:35:23.445Z,100.00
2023-01-22T20:37:50.383Z,99.99
2023-01-22T20:40:17.298Z,99.97
2023-01-22T20:42:44.100Z,100.00
2023-01-22T20:45:10.628Z,100.00
2023-01-22T20:47:37.337Z,100.00
2023-01-22T20:50:05.017Z,100.00
2023-01-22T20:52:32.453Z,100.00
2023-01-22T20:55:02.297Z,100.00
2023-01-22T20:57:29.731Z,100.00
2023-01-22T20:59:57.512Z,100.00
2023-01-22T21:02:24.484Z,100.00
2023-01-22T21:05:11.893Z,100.00
2023-01-22T21:07:38.740Z,100.00
2023-01-22T21:10:06.051Z,100.00
2023-01-22T21:12:33.252Z,100.00
2023-01-22T21:15:02.455Z,99.99
2023-01-22T21:17:30.655Z,99.99
2023-01-22T21:19:57.569Z,100.00
2023-01-22T21:22:25.553Z,100.00
2023-01-22T21:24:52.270Z,100.00
2023-01-22T21:27:19.016Z,100.00
2023-01-22T21:29:45.736Z,100.00
2023-01-22T21:32:12.385Z,100.00
2023-01-22T21:34:39.920Z,100.00
2023-01-22T21:37:06.497Z,100.00
2023-01-22T21:39:33.389Z,100.00
2023-01-22T21:42:26.331Z,100.00
2023-01-22T21:45:11.955Z,100.00
2023-01-22T21:47:38.535Z,99.99
2023-01-22T21:50:05.509Z,100.00
2023-01-22T21:52:32.521Z,100.00
2023-01-22T21:54:59.069Z,100.00
2023-01-22T21:57:26.193Z,99.98
2023-01-22T21:59:52.741Z,99.98
